createdAt,value
2018-04-23T00:00:31.202Z,79.80
2018-04-23T00:02:58.770Z,79.80
2018-04-23T00:05:26.185Z,79.80
2018-04-23T00:07:54.386Z,81.40
2018-04-23T00:10:22.055Z,80.80
2018-04-23T00:12:49.482Z,81.10
2018-04-23T00:15:17.674Z,81.20
2018-04-23T00:17:45.190Z,81.20
2018-04-23T00:20:12.605Z,81.10
2018-04-23T00:22:40.038Z,80.80
2018-04-23T00:25:08.259Z,80.70
2018-04-23T00:27:36.458Z,80.50
2018-04-23T00:30:03.935Z,80.50
2018-04-23T00:32:31.357Z,80.40
2018-04-23T00:34:58.810Z,80.60
2018-04-23T00:37:26.242Z,80.70
2018-04-23T00:39:53.671Z,80.70
2018-04-23T00:42:21.875Z,80.80
2018-04-23T00:44:49.326Z,80.70
2018-04-23T00:47:16.747Z,80.20
2018-04-23T00:49:44.475Z,79.80
2018-04-23T00:52:11.914Z,79.50
2018-04-23T00:54:39.334Z,79.40
2018-04-23T00:57:06.782Z,78.70
2018-04-23T00:59:34.205Z,79.00
2018-04-23T01:02:01.632Z,79.50
2018-04-23T01:04:29.059Z,80.00
2018-04-23T01:06:56.497Z,82.50
2018-04-23T01:09:23.929Z,82.90
2018-04-23T01:11:51.363Z,82.60
2018-04-23T01:14:18.801Z,82.00
2018-04-23T01:16:47.015Z,85.20
2018-04-23T01:19:14.447Z,84.50
2018-04-23T01:21:42.638Z,84.00
2018-04-23T01:24:10.066Z,83.90
2018-04-23T01:26:38.570Z,83.10
2018-04-23T01:29:06.007Z,83.00
2018-04-23T01:31:34.228Z,83.40
2018-04-23T01:34:01.784Z,83.30
2018-04-23T01:36:29.230Z,83.70
2018-04-23T01:38:56.657Z,83.80
2018-04-23T01:41:24.874Z,83.40
2018-04-23T01:43:52.329Z,83.30
2018-04-23T01:46:19.763Z,83.70
2018-04-23T01:48:47.197Z,84.20
2018-04-23T01:51:14.655Z,84.40
2018-04-23T01:53:42.067Z,84.60
2018-04-23T01:56:09.516Z,84.50
2018-04-23T01:58:36.942Z,84.30
2018-04-23T02:01:05.149Z,83.50
2018-04-23T02:03:32.578Z,83.50
2018-04-23T02:06:00.786Z,83.30
2018-04-23T02:08:28.214Z,83.30
2018-04-23T02:10:56.420Z,84.40
2018-04-23T02:13:23.850Z,84.40
2018-04-23T02:15:51.283Z,85.00
2018-04-23T02:18:18.714Z,85.10
2018-04-23T02:20:46.553Z,85.20
2018-04-23T02:23:13.977Z,85.60
2018-04-23T02:25:42.199Z,85.70
2018-04-23T02:28:09.622Z,85.60
2018-04-23T02:30:37.070Z,85.90
2018-04-23T02:33:05.290Z,85.50
2018-04-23T02:35:32.714Z,85.50
2018-04-23T02:38:00.146Z,85.30
2018-04-23T02:40:28.355Z,84.80
2018-04-23T02:42:55.787Z,84.70
2018-04-23T02:45:23.975Z,85.50
2018-04-23T02:47:52.189Z,85.90
2018-04-23T02:50:19.618Z,85.80
2018-04-23T02:52:47.056Z,86.70
2018-04-23T02:55:15.286Z,87.20
2018-04-23T02:57:42.711Z,87.20
2018-04-23T03:00:10.361Z,87.20
2018-04-23T03:02:37.872Z,87.10
2018-04-23T03:05:05.218Z,86.90
2018-04-23T03:07:32.672Z,87.10
2018-04-23T03:10:00.088Z,87.30
2018-04-23T03:12:27.531Z,87.70
2018-04-23T03:14:55.722Z,88.20
2018-04-23T03:17:23.922Z,87.70
2018-04-23T03:19:51.355Z,87.70
2018-04-23T03:22:18.802Z,87.50
2018-04-23T03:24:46.996Z,87.20
2018-04-23T03:27:14.435Z,87.10
2018-04-23T03:29:41.864Z,86.90
2018-04-23T03:32:09.303Z,86.80
2018-04-23T03:34:36.737Z,87.10
2018-04-23T03:37:04.480Z,87.40
2018-04-23T03:39:31.850Z,87.60
2018-04-23T03:41:59.279Z,87.40
2018-04-23T03:44:27.565Z,87.00
2018-04-23T03:46:54.976Z,87.00
2018-04-23T03:49:22.389Z,87.30
2018-04-23T03:51:49.831Z,87.30
2018-04-23T03:54:18.023Z,87.10
2018-04-23T03:56:45.477Z,87.10
2018-04-23T03:59:13.673Z,87.50
2018-04-23T04:01:41.103Z,87.50
2018-04-23T04:04:09.316Z,87.40
2018-04-23T04:06:36.781Z,87.30
2018-04-23T04:09:04.243Z,87.10
2018-04-23T04:11:31.686Z,87.10
2018-04-23T04:14:10.931Z,87.00
2018-04-23T04:16:50.948Z,87.50
2018-04-23T04:19:18.389Z,87.50
2018-04-23T04:21:46.590Z,87.80
2018-04-23T04:24:14.047Z,87.70
2018-04-23T04:26:41.482Z,87.80
2018-04-23T04:29:09.686Z,89.10
2018-04-23T04:31:37.122Z,89.00
2018-04-23T04:34:04.570Z,89.00
2018-04-23T04:36:32.006Z,88.90
2018-04-23T04:38:59.432Z,88.70
2018-04-23T04:41:26.875Z,89.10
2018-04-23T04:43:54.326Z,88.30
2018-04-23T04:46:22.512Z,88.00
2018-04-23T04:48:49.948Z,87.90
2018-04-23T04:51:17.395Z,87.70
2018-04-23T04:53:44.820Z,87.80
2018-04-23T04:56:12.267Z,88.30
2018-04-23T04:58:39.688Z,88.30
2018-04-23T05:01:07.133Z,89.20
2018-04-23T05:03:35.326Z,89.30
2018-04-23T05:06:02.770Z,89.20
2018-04-23T05:08:30.204Z,89.00
2018-04-23T05:10:57.667Z,88.60
2018-04-23T05:13:25.895Z,87.70
2018-04-23T05:15:53.358Z,87.70
2018-04-23T05:18:20.779Z,87.50
2018-04-23T05:20:48.223Z,87.60
2018-04-23T05:23:16.456Z,87.60
2018-04-23T05:25:43.879Z,87.50
2018-04-23T05:28:11.320Z,87.40
2018-04-23T05:30:39.514Z,86.50
2018-04-23T05:33:06.958Z,86.50
2018-04-23T05:35:34.410Z,86.70
2018-04-23T05:38:02.610Z,82.10
2018-04-23T05:40:30.154Z,82.10
2018-04-23T05:42:57.579Z,81.60
2018-04-23T05:45:25.010Z,80.10
2018-04-23T05:47:52.463Z,77.00
2018-04-23T05:50:19.885Z,75.10
2018-04-23T05:52:47.334Z,74.10
2018-04-23T05:55:15.563Z,72.40
2018-04-23T05:57:43.002Z,72.30
2018-04-23T06:00:10.435Z,70.40
2018-04-23T06:02:37.865Z,69.90
2018-04-23T06:05:06.126Z,68.40
2018-04-23T06:07:33.506Z,68.40
2018-04-23T06:10:01.715Z,70.30
2018-04-23T06:12:29.144Z,70.30
2018-04-23T06:14:57.342Z,69.80
2018-04-23T06:17:25.539Z,69.00
2018-04-23T06:19:52.991Z,68.90
2018-04-23T06:22:20.417Z,69.90
2018-04-23T06:24:47.847Z,69.60
2018-04-23T06:27:15.311Z,70.30
2018-04-23T06:29:42.719Z,71.20
2018-04-23T06:32:10.164Z,70.10
2018-04-23T06:34:37.619Z,70.00
2018-04-23T06:37:05.062Z,69.80
2018-04-23T06:39:32.490Z,70.20
2018-04-23T06:41:59.934Z,69.90
2018-04-23T06:44:27.357Z,69.70
2018-04-23T06:46:54.782Z,69.90
2018-04-23T06:49:22.993Z,68.70
2018-04-23T06:51:50.415Z,68.60
2018-04-23T06:54:18.699Z,67.30
2018-04-23T06:56:46.889Z,65.60
2018-04-23T06:59:14.357Z,65.50
2018-04-23T07:01:41.782Z,65.50
2018-04-23T07:04:10.002Z,64.10
2018-04-23T07:06:37.460Z,64.00
2018-04-23T07:09:04.903Z,63.30
2018-04-23T07:11:32.344Z,61.00
2018-04-23T07:14:00.681Z,60.00
2018-04-23T07:16:28.133Z,59.60
2018-04-23T07:18:55.569Z,58.50
2018-04-23T07:21:22.998Z,55.50
2018-04-23T07:23:50.435Z,54.40
2018-04-23T07:26:18.663Z,53.60
2018-04-23T07:28:46.082Z,53.60
2018-04-23T07:31:13.507Z,52.90
2018-04-23T07:33:40.953Z,52.80
2018-04-23T07:36:08.475Z,50.70
2018-04-23T07:38:35.886Z,47.20
2018-04-23T07:41:04.107Z,45.80
2018-04-23T07:43:31.525Z,45.30
2018-04-23T07:45:59.718Z,43.40
2018-04-23T07:48:27.142Z,43.40
2018-04-23T07:50:54.572Z,43.40
2018-04-23T07:53:22.014Z,43.70
2018-04-23T07:55:49.485Z,42.60
2018-04-23T07:58:17.689Z,44.40
2018-04-23T08:00:45.117Z,44.40
2018-04-23T08:03:12.567Z,44.50
2018-04-23T08:05:39.999Z,45.40
2018-04-23T08:08:07.442Z,42.60
2018-04-23T08:10:34.883Z,43.80
2018-04-23T08:13:02.298Z,42.30
2018-04-23T08:15:30.571Z,40.80
2018-04-23T08:17:57.974Z,41.30
2018-04-23T08:20:25.426Z,39.60
2018-04-23T08:22:52.865Z,39.20
2018-04-23T08:25:20.297Z,39.20
2018-04-23T08:27:47.739Z,38.70
2018-04-23T08:30:15.161Z,40.10
2018-04-23T08:32:42.606Z,41.60
2018-04-23T08:35:10.037Z,44.10
2018-04-23T08:37:37.478Z,44.50
2018-04-23T08:40:04.907Z,45.50
2018-04-23T08:42:33.142Z,48.80
2018-04-23T08:45:00.595Z,49.20
2018-04-23T08:47:28.070Z,48.50
2018-04-23T08:49:55.474Z,48.40
2018-04-23T08:52:23.677Z,48.80
2018-04-23T08:54:51.117Z,48.80
2018-04-23T08:57:18.538Z,48.60
2018-04-23T08:59:46.777Z,50.50
2018-04-23T09:02:14.979Z,49.60
2018-04-23T09:04:42.446Z,49.60
2018-04-23T09:07:09.894Z,49.90
2018-04-23T09:09:37.318Z,50.30
2018-04-23T09:12:05.538Z,52.50
2018-04-23T09:14:33.734Z,53.50
2018-04-23T09:17:01.168Z,53.50
2018-04-23T09:19:28.634Z,54.30
2018-04-23T09:21:56.813Z,55.70
2018-04-23T09:24:25.042Z,54.80
2018-04-23T09:26:52.480Z,54.80
2018-04-23T09:29:19.902Z,55.90
2018-04-23T09:31:48.114Z,56.50
2018-04-23T09:34:15.566Z,56.50
2018-04-23T09:36:43.758Z,57.00
2018-04-23T09:39:11.219Z,57.00
2018-04-23T09:41:38.665Z,57.10
2018-04-23T09:44:06.100Z,57.50
2018-04-23T09:46:33.531Z,58.00
2018-04-23T09:49:00.972Z,58.90
2018-04-23T09:51:28.466Z,59.80
2018-04-23T09:53:55.886Z,61.90
2018-04-23T09:56:23.307Z,62.10
2018-04-23T09:58:50.752Z,69.00
2018-04-23T10:01:20.105Z,70.90
2018-04-23T10:03:50.465Z,70.70
2018-04-23T10:06:17.894Z,69.80
2018-04-23T10:08:45.319Z,70.40
2018-04-23T10:11:12.791Z,70.90
2018-04-23T10:13:40.206Z,72.40
2018-04-23T10:16:07.647Z,73.20
2018-04-23T10:18:35.853Z,75.50
2018-04-23T10:21:03.330Z,75.40
2018-04-23T10:23:30.721Z,75.10
2018-04-23T10:25:58.142Z,75.30
2018-04-23T10:28:25.588Z,75.10
2018-04-23T10:30:53.007Z,74.20
2018-04-23T10:33:20.454Z,74.30
2018-04-23T10:35:47.889Z,74.20
2018-04-23T10:38:15.310Z,73.50
2018-04-23T10:40:42.768Z,74.00
2018-04-23T10:43:10.204Z,76.80
2018-04-23T10:45:37.622Z,78.10
2018-04-23T10:48:05.063Z,79.10
2018-04-23T10:50:32.491Z,81.50
2018-04-23T10:52:59.942Z,79.10
2018-04-23T10:55:27.382Z,78.00
2018-04-23T10:57:55.578Z,78.60
2018-04-23T11:00:23.030Z,78.50
2018-04-23T11:02:50.450Z,78.30
2018-04-23T11:05:17.899Z,78.70
2018-04-23T11:07:45.340Z,79.60
2018-04-23T11:10:12.758Z,79.60
2018-04-23T11:12:40.198Z,79.60
2018-04-23T11:15:08.431Z,78.10
2018-04-23T11:17:35.862Z,78.70
2018-04-23T11:20:03.300Z,77.40
2018-04-23T11:22:37.338Z,77.20
2018-04-23T11:25:04.776Z,77.20
2018-04-23T11:27:32.977Z,76.70
2018-04-23T11:30:00.405Z,76.60
2018-04-23T11:32:27.878Z,76.80
2018-04-23T11:34:55.249Z,77.30
2018-04-23T11:37:22.693Z,78.50
2018-04-23T11:39:50.142Z,78.30
2018-04-23T11:42:17.596Z,79.70
2018-04-23T11:44:45.034Z,79.20
2018-04-23T11:47:13.246Z,79.40
2018-04-23T11:49:40.677Z,79.30
2018-04-23T11:52:08.153Z,79.60
2018-04-23T11:54:35.577Z,79.40
2018-04-23T11:57:03.026Z,79.50
2018-04-23T11:59:30.445Z,80.80
2018-04-23T12:01:57.881Z,81.50
2018-04-23T12:04:25.412Z,81.50
2018-04-23T12:06:53.526Z,82.50
2018-04-23T12:09:21.726Z,82.70
2018-04-23T12:11:49.174Z,82.00
2018-04-23T12:14:16.619Z,82.70
2018-04-23T12:16:44.120Z,83.60
2018-04-23T12:19:11.570Z,84.90
2018-04-23T12:21:39.021Z,85.40
2018-04-23T12:24:06.430Z,86.50
2018-04-23T12:26:33.867Z,87.10
2018-04-23T12:29:01.347Z,88.10
2018-04-23T12:31:28.786Z,88.50
2018-04-23T12:33:56.986Z,89.60
2018-04-23T12:36:24.426Z,89.50
2018-04-23T12:38:52.622Z,88.90
2018-04-23T12:41:20.075Z,88.90
2018-04-23T12:43:47.502Z,89.20
2018-04-23T12:46:15.784Z,89.70
2018-04-23T12:48:43.157Z,89.60
2018-04-23T12:51:10.583Z,89.30
2018-04-23T12:53:38.022Z,90.10
2018-04-23T12:56:05.458Z,89.50
2018-04-23T12:58:32.906Z,89.30
2018-04-23T13:01:00.346Z,90.00
2018-04-23T13:03:27.773Z,90.00
2018-04-23T13:05:55.209Z,90.00
2018-04-23T13:08:22.643Z,90.30
2018-04-23T13:10:50.103Z,90.50
2018-04-23T13:13:17.538Z,90.40
2018-04-23T13:15:44.974Z,90.10
2018-04-23T13:18:12.398Z,90.20
2018-04-23T13:20:39.826Z,90.20
2018-04-23T13:23:07.275Z,89.40
2018-04-23T13:25:34.718Z,89.60
2018-04-23T13:28:02.149Z,87.80
2018-04-23T13:30:29.588Z,85.20
2018-04-23T13:32:57.010Z,84.80
2018-04-23T13:35:24.458Z,83.40
2018-04-23T13:37:51.911Z,81.90
2018-04-23T13:40:19.391Z,81.20
2018-04-23T13:42:46.834Z,82.10
2018-04-23T13:45:14.279Z,82.10
2018-04-23T13:47:41.722Z,83.00
2018-04-23T13:50:09.933Z,79.90
2018-04-23T13:52:37.374Z,79.90
2018-04-23T13:55:04.804Z,78.90
2018-04-23T13:57:32.287Z,78.50
2018-04-23T14:00:00.478Z,77.60
2018-04-23T14:02:28.961Z,77.80
2018-04-23T14:04:56.403Z,77.80
2018-04-23T14:07:24.594Z,77.90
2018-04-23T14:09:52.041Z,77.90
2018-04-23T14:12:19.504Z,76.50
2018-04-23T14:14:46.914Z,77.50
2018-04-23T14:17:14.346Z,78.00
2018-04-23T14:19:41.798Z,78.90
2018-04-23T14:22:09.246Z,79.70
2018-04-23T14:24:36.702Z,80.80
2018-04-23T14:27:04.170Z,81.30
2018-04-23T14:29:31.603Z,80.60
2018-04-23T14:31:59.061Z,81.50
2018-04-23T14:34:26.488Z,82.10
2018-04-23T14:36:53.920Z,80.20
2018-04-23T14:39:21.386Z,79.90
2018-04-23T14:41:48.834Z,80.00
2018-04-23T14:44:16.254Z,78.70
2018-04-23T14:46:43.688Z,77.80
2018-04-23T14:49:11.897Z,79.50
2018-04-23T14:51:39.374Z,78.80
2018-04-23T14:54:06.813Z,78.90
2018-04-23T14:56:34.254Z,78.90
2018-04-23T14:59:01.694Z,80.90
2018-04-23T15:01:30.726Z,80.70
2018-04-23T15:03:58.215Z,80.70
2018-04-23T15:06:25.603Z,81.10
2018-04-23T15:08:53.810Z,81.00
2018-04-23T15:11:21.251Z,81.00
2018-04-23T15:13:48.690Z,80.20
2018-04-23T15:16:16.142Z,81.20
2018-04-23T15:18:44.346Z,81.50
2018-04-23T15:21:11.775Z,81.40
2018-04-23T15:23:39.980Z,83.10
2018-04-23T15:26:07.420Z,83.10
2018-04-23T15:28:35.632Z,84.70
2018-04-23T15:31:03.065Z,84.60
2018-04-23T15:33:30.505Z,84.70
2018-04-23T15:35:58.781Z,85.00
2018-04-23T15:38:26.186Z,84.90
2018-04-23T15:40:53.630Z,86.40
2018-04-23T15:43:21.835Z,86.10
2018-04-23T15:45:49.282Z,86.70
2018-04-23T15:48:16.715Z,86.60
2018-04-23T15:50:44.137Z,86.60
2018-04-23T15:53:12.362Z,88.60
2018-04-23T15:55:39.801Z,88.50
2018-04-23T15:58:07.218Z,89.00
2018-04-23T16:00:34.653Z,89.00
2018-04-23T16:03:02.102Z,89.10
2018-04-23T16:05:29.563Z,89.30
2018-04-23T16:07:57.005Z,89.60
2018-04-23T16:10:24.494Z,90.40
2018-04-23T16:12:51.930Z,90.70
2018-04-23T16:15:19.381Z,90.50
2018-04-23T16:17:46.810Z,90.30
2018-04-23T16:20:14.246Z,90.50
2018-04-23T16:22:41.694Z,90.50
2018-04-23T16:25:09.137Z,90.40
2018-04-23T16:27:36.594Z,90.80
2018-04-23T16:30:04.075Z,90.80
2018-04-23T16:32:31.547Z,91.10
2018-04-23T16:34:59.075Z,90.90
2018-04-23T16:37:26.522Z,91.00
2018-04-23T16:39:54.033Z,90.80
2018-04-23T16:42:21.654Z,90.70
2018-04-23T16:44:50.543Z,90.80
2018-04-23T16:47:17.049Z,90.80
2018-04-23T16:49:44.491Z,90.90
2018-04-23T16:52:11.962Z,91.10
2018-04-23T16:54:39.419Z,91.20
2018-04-23T16:57:06.880Z,91.20
2018-04-23T16:59:34.329Z,91.50
2018-04-23T17:02:01.765Z,91.50
2018-04-23T17:04:29.963Z,91.60
2018-04-23T17:06:57.402Z,91.50
2018-04-23T17:09:25.881Z,91.40
2018-04-23T17:11:53.332Z,91.20
2018-04-23T17:14:21.528Z,91.30
2018-04-23T17:16:48.985Z,91.30
2018-04-23T17:19:16.450Z,91.10
2018-04-23T17:21:44.623Z,91.30
2018-04-23T17:24:12.074Z,91.20
2018-04-23T17:26:39.496Z,91.40
2018-04-23T17:29:07.710Z,91.80
2018-04-23T17:31:35.129Z,91.80
2018-04-23T17:34:03.336Z,91.80
2018-04-23T17:36:30.776Z,91.70
2018-04-23T17:38:58.973Z,91.50
2018-04-23T17:41:26.413Z,91.50
2018-04-23T17:43:53.848Z,91.60
2018-04-23T17:46:21.285Z,91.90
2018-04-23T17:48:48.746Z,92.00
2018-04-23T17:51:17.032Z,92.20
2018-04-23T17:53:44.466Z,92.20
2018-04-23T17:56:11.918Z,92.30
2018-04-23T17:58:39.430Z,92.60
2018-04-23T18:01:06.857Z,93.00
2018-04-23T18:03:34.331Z,93.10
2018-04-23T18:06:01.738Z,93.20
2018-04-23T18:08:29.202Z,93.20
2018-04-23T18:10:56.661Z,93.20
2018-04-23T18:13:24.104Z,93.10
2018-04-23T18:15:51.670Z,93.20
2018-04-23T18:18:19.103Z,93.30
2018-04-23T18:20:47.312Z,93.10
2018-04-23T18:23:14.749Z,93.10
2018-04-23T18:25:42.677Z,92.90
2018-04-23T18:28:10.142Z,92.90
2018-04-23T18:30:37.572Z,92.90
2018-04-23T18:33:05.261Z,92.90
2018-04-23T18:35:32.683Z,93.10
2018-04-23T18:38:00.110Z,93.20
2018-04-23T18:40:27.549Z,93.50
2018-04-23T18:42:55.762Z,93.50
2018-04-23T18:45:23.173Z,93.50
2018-04-23T18:47:51.403Z,93.70
2018-04-23T18:50:18.849Z,93.70
2018-04-23T18:52:46.310Z,93.80
2018-04-23T18:55:13.749Z,93.90
2018-04-23T18:57:41.177Z,94.00
2018-04-23T19:00:08.608Z,93.90
2018-04-23T19:02:36.049Z,94.10
2018-04-23T19:05:03.493Z,94.10
2018-04-23T19:07:30.910Z,94.30
2018-04-23T19:09:59.262Z,94.60
2018-04-23T19:12:26.706Z,94.60
2018-04-23T19:14:54.146Z,94.60
2018-04-23T19:17:21.581Z,94.70
2018-04-23T19:19:49.043Z,94.70
2018-04-23T19:22:17.242Z,94.80
2018-04-23T19:24:44.706Z,94.80
2018-04-23T19:27:12.239Z,94.80
2018-04-23T19:29:39.739Z,94.80
2018-04-23T19:32:07.490Z,94.80
2018-04-23T19:34:34.937Z,94.80
2018-04-23T19:37:02.383Z,94.80
2018-04-23T19:39:29.847Z,94.80
2018-04-23T19:41:57.295Z,94.80
2018-04-23T19:44:25.136Z,94.80
2018-04-23T19:46:53.361Z,94.60
2018-04-23T19:49:20.778Z,94.60
2018-04-23T19:51:48.246Z,94.40
2018-04-23T19:54:15.691Z,94.20
2018-04-23T19:56:43.143Z,94.00
2018-04-23T19:59:11.358Z,93.70
2018-04-23T20:01:39.842Z,93.70
2018-04-23T20:04:07.843Z,93.70
2018-04-23T20:06:36.274Z,93.80
2018-04-23T20:09:03.745Z,93.70
2018-04-23T20:11:31.211Z,93.50
2018-04-23T20:13:58.642Z,93.40
2018-04-23T20:16:26.091Z,93.10
2018-04-23T20:18:54.294Z,93.10
2018-04-23T20:21:21.812Z,93.10
2018-04-23T20:23:49.213Z,93.10
2018-04-23T20:26:16.671Z,93.10
2018-04-23T20:28:44.158Z,92.90
2018-04-23T20:31:11.582Z,92.80
2018-04-23T20:33:39.024Z,92.70
2018-04-23T20:36:06.450Z,92.50
2018-04-23T20:38:33.897Z,92.50
2018-04-23T20:41:01.333Z,92.60
2018-04-23T20:43:28.771Z,92.70
2018-04-23T20:45:56.220Z,92.80
2018-04-23T20:48:23.650Z,92.90
2018-04-23T20:50:51.105Z,92.90
2018-04-23T20:53:19.254Z,92.90
2018-04-23T20:55:46.693Z,93.20
2018-04-23T20:58:14.158Z,92.80
2018-04-23T21:00:41.739Z,93.10
2018-04-23T21:03:09.197Z,93.20
2018-04-23T21:05:36.608Z,93.50
2018-04-23T21:08:04.048Z,93.70
2018-04-23T21:10:31.487Z,94.20
2018-04-23T21:12:58.931Z,94.50
2018-04-23T21:15:26.369Z,94.50
2018-04-23T21:17:53.804Z,94.60
2018-04-23T21:20:22.010Z,94.90
2018-04-23T21:22:49.443Z,94.90
2018-04-23T21:25:16.897Z,95.10
2018-04-23T21:27:44.344Z,95.20
2018-04-23T21:30:11.767Z,95.10
2018-04-23T21:32:39.964Z,94.90
2018-04-23T21:35:07.412Z,94.90
2018-04-23T21:37:34.893Z,95.00
2018-04-23T21:40:02.296Z,95.00
2018-04-23T21:42:29.721Z,94.90
2018-04-23T21:44:57.150Z,94.80
2018-04-23T21:47:24.582Z,94.60
2018-04-23T21:49:52.786Z,94.40
2018-04-23T21:52:20.206Z,94.40
2018-04-23T21:54:47.637Z,94.20
2018-04-23T21:57:15.069Z,94.00
2018-04-23T21:59:42.508Z,93.80
2018-04-23T22:02:09.949Z,93.70
2018-04-23T22:04:38.145Z,93.80
2018-04-23T22:07:05.569Z,93.80
2018-04-23T22:09:33.001Z,94.00
2018-04-23T22:12:00.442Z,93.90
2018-04-23T22:14:27.874Z,94.00
2018-04-23T22:16:55.322Z,94.00
2018-04-23T22:19:23.514Z,94.40
2018-04-23T22:21:50.945Z,94.30
2018-04-23T22:24:19.155Z,94.70
2018-04-23T22:26:46.590Z,94.70
2018-04-23T22:29:14.026Z,94.80
2018-04-23T22:31:41.470Z,94.90
2018-04-23T22:34:08.916Z,95.10
2018-04-23T22:36:36.359Z,95.30
2018-04-23T22:39:03.787Z,95.40
2018-04-23T22:41:31.237Z,95.50
2018-04-23T22:43:59.421Z,95.80
2018-04-23T22:46:26.845Z,95.70
2018-04-23T22:48:54.273Z,95.70
2018-04-23T22:51:21.711Z,95.80
2018-04-23T22:53:49.920Z,96.10
2018-04-23T22:56:17.350Z,96.00
2018-04-23T22:58:44.794Z,96.00
2018-04-23T23:01:12.230Z,96.10
2018-04-23T23:03:39.679Z,96.60
2018-04-23T23:06:07.109Z,96.80
2018-04-23T23:08:34.550Z,97.00
2018-04-23T23:11:01.979Z,97.00
2018-04-23T23:13:29.416Z,96.90
2018-04-23T23:15:57.607Z,96.60
2018-04-23T23:18:25.043Z,96.60
2018-04-23T23:20:53.254Z,97.10
2018-04-23T23:23:20.698Z,97.00
2018-04-23T23:25:48.129Z,97.20
2018-04-23T23:28:16.335Z,97.30
2018-04-23T23:30:43.761Z,97.30
2018-04-23T23:33:11.947Z,97.10
2018-04-23T23:35:39.394Z,97.10
2018-04-23T23:38:07.590Z,96.90
2018-04-23T23:40:35.022Z,96.70
2018-04-23T23:43:03.219Z,96.80
2018-04-23T23:45:30.673Z,96.80
2018-04-23T23:47:58.850Z,96.80
2018-04-23T23:50:26.286Z,96.80
2018-04-23T23:52:54.473Z,96.90
2018-04-23T23:55:22.657Z,97.00
2018-04-23T23:57:50.090Z,97.00
